createdAt,value
2023-02-14T00:01:48.504Z,16.88
2023-02-14T00:05:53.501Z,9.38
2023-02-14T00:09:58.257Z,10.15
2023-02-14T00:14:18.835Z,8.82
2023-02-14T00:18:44.732Z,8.30
2023-02-14T00:22:47.854Z,14.05
2023-02-14T00:26:53.260Z,10.20
2023-02-14T00:30:59.204Z,11.27
2023-02-14T00:35:05.743Z,8.50
2023-02-14T00:39:11.491Z,12.30
2023-02-14T00:43:23.379Z,10.45
2023-02-14T00:47:26.493Z,14.00
2023-02-14T00:51:29.855Z,7.38
2023-02-14T00:55:34.598Z,8.55
2023-02-14T00:59:39.193Z,8.82
2023-02-14T01:03:43.016Z,11.88
2023-02-14T01:07:46.133Z,8.00
2023-02-14T01:11:49.935Z,11.20
2023-02-14T01:15:55.025Z,12.90
2023-02-14T01:19:58.165Z,11.82
2023-02-14T01:24:03.233Z,8.55
2023-02-14T01:28:06.339Z,13.07
2023-02-14T01:32:10.805Z,14.15
2023-02-14T01:36:20.091Z,8.60
2023-02-14T01:40:23.188Z,14.15
2023-02-14T01:44:59.583Z,11.70
2023-02-14T01:49:07.441Z,13.50
2023-02-14T01:53:13.826Z,14.23
2023-02-14T01:57:20.959Z,11.00
2023-02-14T02:01:25.439Z,12.50
2023-02-14T02:05:32.662Z,13.00
2023-02-14T02:09:38.409Z,15.93
2023-02-14T02:13:41.366Z,12.50
2023-02-14T02:17:53.342Z,15.23
2023-02-14T02:22:26.272Z,19.27
2023-02-14T02:26:55.756Z,14.30
2023-02-14T02:31:22.523Z,12.90
2023-02-14T02:35:51.719Z,8.15
2023-02-14T02:40:09.044Z,17.50
2023-02-14T02:44:21.313Z,15.93
2023-02-14T02:48:27.864Z,17.95
2023-02-14T02:52:58.736Z,11.75
2023-02-14T02:57:07.184Z,15.15
2023-02-14T03:01:13.677Z,9.80
2023-02-14T03:05:18.151Z,13.52
2023-02-14T03:09:57.762Z,17.55
2023-02-14T03:14:14.300Z,17.15
2023-02-14T03:18:40.002Z,14.63
2023-02-14T03:22:50.470Z,17.33
2023-02-14T03:27:01.537Z,10.60
2023-02-14T03:31:10.008Z,11.98
2023-02-14T03:35:19.079Z,17.40
2023-02-14T03:39:29.675Z,14.07
2023-02-14T03:43:38.285Z,16.85
2023-02-14T03:47:43.805Z,15.35
2023-02-14T03:51:55.241Z,14.80
2023-02-14T03:56:04.916Z,12.98
2023-02-14T04:00:11.107Z,19.45
2023-02-14T04:04:16.211Z,12.38
2023-02-14T04:08:26.776Z,11.52
2023-02-14T04:12:37.756Z,15.05
2023-02-14T04:16:56.507Z,15.45
2023-02-14T04:20:59.313Z,7.95
2023-02-14T04:25:02.721Z,14.40
2023-02-14T04:29:06.352Z,15.05
2023-02-14T04:33:11.012Z,16.10
2023-02-14T04:37:15.360Z,20.23
2023-02-14T04:41:18.576Z,15.40
2023-02-14T04:45:21.658Z,19.25
2023-02-14T04:49:26.227Z,11.48
2023-02-14T04:53:31.918Z,18.13
2023-02-14T04:57:35.085Z,13.07
2023-02-14T05:01:39.066Z,18.00
2023-02-14T05:05:44.864Z,21.00
2023-02-14T05:09:49.907Z,17.50
2023-02-14T05:13:54.770Z,15.18
2023-02-14T05:18:01.857Z,14.48
2023-02-14T05:22:06.662Z,16.70
2023-02-14T05:26:09.579Z,23.13
2023-02-14T05:30:14.832Z,16.02
2023-02-14T05:34:18.898Z,14.68
2023-02-14T05:38:23.145Z,19.40
2023-02-14T05:42:27.757Z,16.75
2023-02-14T05:46:30.831Z,17.25
2023-02-14T05:50:34.040Z,17.02
2023-02-14T05:54:38.303Z,17.75
2023-02-14T05:58:41.379Z,18.63
2023-02-14T06:02:44.544Z,22.05
2023-02-14T06:06:47.994Z,19.77
2023-02-14T06:10:52.497Z,20.73
2023-02-14T06:14:55.809Z,19.05
2023-02-14T06:18:58.922Z,17.50
2023-02-14T06:23:03.008Z,17.55
2023-02-14T06:27:07.344Z,22.17
2023-02-14T06:31:16.220Z,20.65
2023-02-14T06:35:19.491Z,18.77
2023-02-14T06:39:23.909Z,16.30
2023-02-14T06:43:28.529Z,20.10
2023-02-14T06:47:33.296Z,18.33
2023-02-14T06:51:37.700Z,20.30
2023-02-14T06:55:43.538Z,8.50
2023-02-14T06:59:48.683Z,18.92
2023-02-14T07:03:51.423Z,10.45
2023-02-14T07:07:55.886Z,23.40
2023-02-14T07:11:58.399Z,6.18
2023-02-14T07:16:03.026Z,15.57
2023-02-14T07:20:07.620Z,18.33
2023-02-14T07:24:13.890Z,22.25
2023-02-14T07:28:17.096Z,21.58
2023-02-14T07:32:21.759Z,16.10
2023-02-14T07:36:24.803Z,32.38
2023-02-14T07:40:33.572Z,20.55
2023-02-14T07:45:06.875Z,26.48
2023-02-14T07:49:09.507Z,23.40
2023-02-14T07:53:17.215Z,23.73
2023-02-14T07:57:20.399Z,22.08
2023-02-14T08:01:23.423Z,26.15
2023-02-14T08:05:29.659Z,26.90
2023-02-14T08:09:33.272Z,22.98
2023-02-14T08:13:36.913Z,13.82
2023-02-14T08:17:40.049Z,22.63
2023-02-14T08:21:44.310Z,19.02
2023-02-14T08:25:47.232Z,18.40
2023-02-14T08:29:50.533Z,23.25
2023-02-14T08:33:53.700Z,23.77
2023-02-14T08:37:58.394Z,23.52
2023-02-14T08:42:03.649Z,23.30
2023-02-14T08:46:07.028Z,21.35
2023-02-14T08:50:15.280Z,21.00
2023-02-14T08:54:20.049Z,21.02
2023-02-14T08:58:23.167Z,22.45
2023-02-14T09:02:27.755Z,20.90
2023-02-14T09:06:31.652Z,18.63
2023-02-14T09:10:39.448Z,23.90
2023-02-14T09:14:45.623Z,21.50
2023-02-14T09:18:49.698Z,19.40
2023-02-14T09:22:52.948Z,22.23
2023-02-14T09:26:58.357Z,14.20
2023-02-14T09:31:11.224Z,18.15
2023-02-14T09:35:31.417Z,23.05
2023-02-14T09:39:38.164Z,25.65
2023-02-14T09:43:50.997Z,27.23
2023-02-14T09:47:58.956Z,23.45
2023-02-14T09:52:07.499Z,15.27
2023-02-14T09:56:17.677Z,21.38
2023-02-14T10:00:30.811Z,17.30
2023-02-14T10:04:40.312Z,17.33
2023-02-14T10:08:57.121Z,24.65
2023-02-14T10:13:07.769Z,22.85
2023-02-14T10:17:19.866Z,10.05
2023-02-14T10:21:26.928Z,13.70
2023-02-14T10:25:35.759Z,20.30
2023-02-14T10:29:42.292Z,30.50
2023-02-14T10:33:57.705Z,30.40
2023-02-14T10:42:20.782Z,24.10
2023-02-14T10:46:36.220Z,29.50
2023-02-14T10:50:48.890Z,33.88
2023-02-14T10:54:56.945Z,16.40
2023-02-14T10:59:04.014Z,24.42
2023-02-14T11:03:11.163Z,22.33
2023-02-14T11:07:16.858Z,22.88
2023-02-14T11:11:29.979Z,25.23
2023-02-14T11:15:37.187Z,13.35
2023-02-14T11:19:40.247Z,22.25
2023-02-14T11:23:46.789Z,26.00
2023-02-14T11:27:57.416Z,23.50
2023-02-14T11:32:09.917Z,25.00
2023-02-14T11:36:16.975Z,21.10
2023-02-14T11:40:33.988Z,25.48
2023-02-14T11:44:44.148Z,25.35
2023-02-14T11:53:00.397Z,27.95
2023-02-14T11:57:08.906Z,18.95
2023-02-14T12:01:21.682Z,28.48
2023-02-14T12:05:29.548Z,21.88
2023-02-14T12:09:34.407Z,23.60
2023-02-14T12:13:40.962Z,26.88
2023-02-14T12:17:50.432Z,21.48
2023-02-14T12:21:58.406Z,21.00
2023-02-14T12:26:06.105Z,36.20
2023-02-14T12:30:17.988Z,20.17
2023-02-14T12:34:21.641Z,22.88
2023-02-14T12:42:49.522Z,25.17
2023-02-14T12:47:16.334Z,26.70
2023-02-14T12:51:27.445Z,23.75
2023-02-14T12:55:42.946Z,29.20
2023-02-14T13:00:00.283Z,24.52
2023-02-14T13:04:27.019Z,23.42
2023-02-14T13:08:48.240Z,16.17
2023-02-14T13:13:01.044Z,24.92
2023-02-14T13:17:14.358Z,16.85
2023-02-14T13:21:23.833Z,21.20
2023-02-14T13:25:32.090Z,13.20
2023-02-14T13:29:46.573Z,21.20
2023-02-14T13:33:53.802Z,20.45
2023-02-14T13:38:02.199Z,23.52
2023-02-14T13:42:06.321Z,20.75
2023-02-14T13:46:09.615Z,25.15
2023-02-14T13:50:22.371Z,24.48
2023-02-14T13:54:37.889Z,25.95
2023-02-14T13:58:49.073Z,23.70
2023-02-14T14:02:53.688Z,23.80
2023-02-14T14:07:27.293Z,26.05
2023-02-14T14:11:52.928Z,16.73
2023-02-14T14:16:28.007Z,22.60
2023-02-14T14:20:43.620Z,23.48
2023-02-14T14:24:59.888Z,26.77
2023-02-14T14:29:11.738Z,18.42
2023-02-14T14:33:15.951Z,26.83
2023-02-14T14:37:23.767Z,24.58
2023-02-14T14:41:33.286Z,20.13
2023-02-14T14:45:41.940Z,25.65
2023-02-14T14:49:45.103Z,27.02
2023-02-14T14:53:52.132Z,21.45
2023-02-14T14:57:58.861Z,21.30
2023-02-14T15:02:03.918Z,27.45
2023-02-14T15:06:11.439Z,28.48
2023-02-14T15:10:27.402Z,17.60
2023-02-14T15:14:37.184Z,25.77
2023-02-14T15:18:41.746Z,22.00
2023-02-14T15:22:47.713Z,29.05
2023-02-14T15:26:53.353Z,17.27
2023-02-14T15:31:03.466Z,20.48
2023-02-14T15:35:18.978Z,27.92
2023-02-14T15:39:27.597Z,24.73
2023-02-14T15:43:36.851Z,26.05
2023-02-14T15:47:41.851Z,21.88
2023-02-14T15:51:46.306Z,26.15
2023-02-14T15:55:51.185Z,26.38
2023-02-14T15:59:55.304Z,26.08
2023-02-14T16:04:01.861Z,31.63
2023-02-14T16:08:09.553Z,29.98
2023-02-14T16:12:34.042Z,26.08
2023-02-14T16:16:58.482Z,25.67
2023-02-14T16:21:15.763Z,27.85
2023-02-14T16:25:23.319Z,25.33
2023-02-14T16:29:26.409Z,29.98
2023-02-14T16:33:31.590Z,30.05
2023-02-14T16:37:36.385Z,26.60
2023-02-14T16:45:48.087Z,26.38
2023-02-14T16:49:53.231Z,34.22
2023-02-14T16:54:01.156Z,30.30
2023-02-14T16:58:05.527Z,35.35
2023-02-14T17:02:10.486Z,20.17
2023-02-14T17:06:22.057Z,30.42
2023-02-14T17:10:25.278Z,32.65
2023-02-14T17:14:34.907Z,29.75
2023-02-14T17:22:42.781Z,28.65
2023-02-14T17:26:48.901Z,26.50
2023-02-14T17:30:54.850Z,32.33
2023-02-14T17:34:58.021Z,32.08
2023-02-14T17:39:01.098Z,26.77
2023-02-14T17:43:08.552Z,27.15
2023-02-14T17:47:14.949Z,27.67
2023-02-14T17:51:20.567Z,27.88
2023-02-14T17:55:24.023Z,25.48
2023-02-14T17:59:30.045Z,31.35
2023-02-14T18:03:38.048Z,25.75
2023-02-14T18:07:43.563Z,27.20
2023-02-14T18:11:50.896Z,29.73
2023-02-14T18:16:00.185Z,28.80
2023-02-14T18:20:06.053Z,30.42
2023-02-14T18:24:10.042Z,30.45
2023-02-14T18:28:13.171Z,31.00
2023-02-14T18:32:20.507Z,30.30
2023-02-14T18:36:25.584Z,31.10
2023-02-14T18:40:29.993Z,30.50
2023-02-14T18:44:33.758Z,31.27
2023-02-14T18:48:38.588Z,28.98
2023-02-14T18:52:45.939Z,29.50
2023-02-14T18:56:48.806Z,31.10
2023-02-14T19:00:52.111Z,34.53
2023-02-14T19:04:55.119Z,32.75
2023-02-14T19:08:59.965Z,29.75
2023-02-14T19:13:05.855Z,26.63
2023-02-14T19:17:09.328Z,31.45
2023-02-14T19:21:14.657Z,33.45
2023-02-14T19:25:19.407Z,18.63
2023-02-14T19:29:23.368Z,34.50
2023-02-14T19:33:26.721Z,36.95
2023-02-14T19:37:30.113Z,30.23
2023-02-14T19:41:35.870Z,39.08
2023-02-14T19:45:40.222Z,26.77
2023-02-14T19:49:46.549Z,33.95
2023-02-14T19:53:50.036Z,29.95
2023-02-14T19:57:54.515Z,32.58
2023-02-14T20:01:58.572Z,25.15
2023-02-14T20:06:03.611Z,30.50
2023-02-14T20:10:07.701Z,29.60
2023-02-14T20:14:18.362Z,32.15
2023-02-14T20:18:24.702Z,40.10
2023-02-14T20:22:28.378Z,30.75
2023-02-14T20:30:40.138Z,41.55
2023-02-14T20:34:46.180Z,30.20
2023-02-14T20:38:49.172Z,37.33
2023-02-14T20:42:52.319Z,32.30
2023-02-14T20:51:09.669Z,29.88
2023-02-14T20:55:12.852Z,31.02
2023-02-14T20:59:17.373Z,32.58
2023-02-14T21:03:23.773Z,33.45
2023-02-14T21:07:31.027Z,39.13
2023-02-14T21:11:34.552Z,35.72
2023-02-14T21:15:44.881Z,38.80
2023-02-14T21:19:55.373Z,35.35
2023-02-14T21:23:58.506Z,38.35
2023-02-14T21:28:03.333Z,32.38
2023-02-14T21:32:08.828Z,38.85
2023-02-14T21:36:18.088Z,36.83
2023-02-14T21:40:26.330Z,38.17
2023-02-14T21:44:47.208Z,33.42
2023-02-14T21:49:07.408Z,35.22
2023-02-14T21:53:11.632Z,34.92
2023-02-14T21:57:14.750Z,34.85
2023-02-14T22:01:20.944Z,33.80
2023-02-14T22:05:24.247Z,33.45
2023-02-14T22:09:29.115Z,33.13
2023-02-14T22:13:32.163Z,41.22
2023-02-14T22:17:37.941Z,39.75
2023-02-14T22:21:40.985Z,38.45
2023-02-14T22:25:45.633Z,45.17
2023-02-14T22:29:48.551Z,31.10
2023-02-14T22:33:54.495Z,40.38
2023-02-14T22:37:59.816Z,40.88
2023-02-14T22:42:06.957Z,44.90
2023-02-14T22:46:12.460Z,42.65
2023-02-14T22:50:15.760Z,39.08
2023-02-14T22:54:18.809Z,33.60
2023-02-14T22:58:26.547Z,39.50
2023-02-14T23:02:30.205Z,40.83
2023-02-14T23:06:35.757Z,37.67
2023-02-14T23:10:38.991Z,34.20
2023-02-14T23:15:00.965Z,32.17
2023-02-14T23:19:21.583Z,36.00
2023-02-14T23:23:24.845Z,35.58
2023-02-14T23:31:37.105Z,38.17
2023-02-14T23:35:40.661Z,36.33
2023-02-14T23:39:45.039Z,33.45
2023-02-14T23:43:50.323Z,36.35
2023-02-14T23:47:54.999Z,38.92
2023-02-14T23:51:58.161Z,32.70
2023-02-14T23:56:06.106Z,37.28
